Airfield :
LOGIN :

Register | Disclaimer

   EN    FR    IT 

 










Legend :    VFR   Marginal VFR   IFR   Intensive IFR   Very Intensive IFR
Visi :
Ceiling :
>= 8 km
>= 3000ft
5 to 8 km
1000 to 3000 ft
1500m to 5 km
500 to 1000 ft
800 to 1500m
200 to 500 ft
< 800m
< 200 ft
Symbols :   Thunderstorms  Fog  Heavy snow  Heavy precipitations  Wind > 20 kt
SIGMETs :     Misc.  Thunderstorms  Icing  Turbulence  Mountain Waves  Volcanic Ashes






- Airport Elevation : 919 ft
- IATA code : IFO


UKLI - Ivano Frankivs'k

CURRENT METAR :
  • 190630Z 00000MPS 6000 NSC 08/08 Q1017 R28/090070 NOSIG

EXPIRED METARs :
  • 190600Z 00000MPS 7000 NSC 06/06 Q1017 R28/090070 NOSIG
  • 190530Z 00000MPS 6000 NSC 04/04 Q1017 R28/090070 NOSIG
  • 190513Z 31002MPS 4700 1300N BR NSC 04/03 Q1017 R28/090070 TEMPO 0500 FG SCT010
  • 190500Z 00000MPS 5000 1300N BR NSC 03/03 Q1017 R28/090070 TEMPO 0500 FG SCT010
  • 190430Z 00000MPS 7000 NSC 03/03 Q1017 R28/090070 TEMPO 0500 FG SCT010
  • 190400Z 00000MPS 9000 NSC 04/03 Q1017 R28/090070 TEMPO 0500 FG SCT010

TAF TAF UKLI
Valid from the 19 at 06:00 until the 19 at 15:00 UTC


190503Z 1906/1915 VRB01MPS 9999 SCT030 TX24/1913Z TN04/1906Z
TEMPO 1906/1909 1200 BR



MET'MAP, your aeronautical weather chart ! - Copyright ORBIFLY December 2007 - Disclaimer

ORBIFLY MET'MAP TEAM :

Programming & Development : Alexandra Zaïnal
Concept & Development : Baudouin d'Aumeries
Co-Development & Prog : Marc-Olivier Méhu
Technical & hardware support : Manuel Goepfert

Contact : metmap@orbifly.com




SOURCES & CREDITS :

   NOAA